Bewolking Meer informatie Parkstad Weather Satellite


Neerslagradar Meer informatie Parkstad Rain Snow Radar


Onweersbuien Meer informatie Parkstad Lighntning


24/7 Weercamera Meer informatie Parkstad Weathercam


Natuurbrandrisico
CBI






Het weer levert geen direct gevaar op in Parkstad.    Er zijn geen waarschuwingen afgegeven voor Parkstad (045)

METAR rapporten vliegvelden

   
EHAM - Amsterdam
Gewijzigd: 24-09-2020 03:25
Kleine regenbuien, Neerslag, Gedeeltelijk bewolkt  
Kleine regenbuien, Neerslag, Gedeeltelijk bewolkt  
   Wind: ZW 33.3 km/h
Wind: ZW 33.3 km/h
Temperatuur: 15°C
Dauwpunt: 11°C
Vochtigheid: 77%
Barometer: 996 hPa
Satelliet beelden: Gedeeltelijk bewolkt
Zicht: meer dan 10 km
Bewolking: Licht bewolkt 640 m,
Gedeeltelijk bewolkt 853 m
EHAM 240125Z 23018KT 9999 -SHRA FEW021TCU SCT028 15/11 Q0996 NOSIG
EBAW - Antwerpen
Gewijzigd: 24-09-2020 03:20
Helder  
Helder  
   Wind: WZW 20.4 km/h
Wind: WZW 20.4 km/h
Temperatuur: 14°C
Dauwpunt: 10°C
Vochtigheid: 77%
Barometer: 1001 hPa
Zicht: meer dan 10 km
Bewolking: Helder
EBAW 240120Z AUTO 24011KT CAVOK 14/10 Q1001
EGLL - London
Gewijzigd: 24-09-2020 03:20
Helder  
Helder  
   Wind: ZW 13 km/h
Wind: ZW 13 km/h
Temperatuur: 8°C
Voelt als: 6°C
Dauwpunt: 7°C
Vochtigheid: 93%
Barometer: 1000 hPa
Satelliet beelden: Helder
Zicht: meer dan 10 km
Bewolking: Helder
EGLL 240120Z AUTO 22007KT 9999 NCD 08/07 Q1000 NOSIG
ELLX - Luxemburg
Gewijzigd: 24-09-2020 03:20
Kleine regenbuien, Neerslag, Grotendeels bewolkt  
Kleine regenbuien, Neerslag, Grotendeels bewolkt  
   Wind: ZW 16.7 km/h
Wind: ZW 16.7 km/h
Temperatuur: 15°C
Dauwpunt: 14°C
Vochtigheid: 94%
Barometer: 1004 hPa
Satelliet beelden: Grotendeels bewolkt
Zicht: meer dan 10 km
Bewolking: Licht bewolkt 152 m,
Gedeeltelijk bewolkt 213 m,
Grotendeels bewolkt 244 m
ELLX 240120Z AUTO 22009KT 9999 -SHRA FEW005/// SCT007/// BKN008/// 15/14 Q1004 NOSIG
EDDT - Berlijn
Gewijzigd: 24-09-2020 03:20
Helder  
Helder  
   Wind: Zuiden 3.7 km/h
Wind: Zuiden 3.7 km/h
Temperatuur: 16°C
Dauwpunt: 11°C
Vochtigheid: 72%
Barometer: 1003 hPa
Zicht: meer dan 10 km
Bewolking: Helder
EDDT 240120Z 18002KT CAVOK 16/11 Q1003
EDDM - München
Gewijzigd: 24-09-2020 03:20
Helder  
Helder  
   Wind: WZW 5.6 km/h
Wind: WZW 5.6 km/h
Temperatuur: 11°C
Dauwpunt: 11°C
Vochtigheid: 100%
Barometer: 1009 hPa
Zicht: meer dan 10 km
Bewolking: Helder
EDDM 240120Z 24003KT CAVOK 11/11 Q1009 NOSIG
LFPO - Parijs
Gewijzigd: 24-09-2020 03:30
Licht bewolkt  
Licht bewolkt  
   Wind: ZW 9.3 km/h
Wind: ZW 9.3 km/h
Temperatuur: 12°C
Dauwpunt: 10°C
Vochtigheid: 88%
Barometer: 1007 hPa
Satelliet beelden: Licht bewolkt
Zicht: meer dan 10 km
Bewolking: Licht bewolkt 579 m
LFPO 240130Z 22005KT 9999 FEW019 12/10 Q1007 NOSIG
EDDL - Düsseldorf
Gewijzigd: 24-09-2020 03:50
Kleine regenbuien, Neerslag, Licht bewolkt  
Kleine regenbuien, Neerslag, Licht bewolkt  
   Wind: ZW 24.1 km/h
Wind: ZW 24.1 km/h
Temperatuur: 17°C
Dauwpunt: 14°C
Vochtigheid: 83%
Barometer: 1000 hPa
Satelliet beelden: Licht bewolkt
Zicht: meer dan 10 km
Bewolking: Licht bewolkt 793 m
EDDL 240150Z 22013KT 9999 -SHRA FEW026TCU 17/14 Q1000 TEMPO 20015G2
EDDK - Köln/Bonn Duitsland
Gewijzigd: 24-09-2020 03:50
Gedeeltelijk bewolkt  
Gedeeltelijk bewolkt  
   Wind: ZZW 20.4 km/h
Wind: ZZW 20.4 km/h
Temperatuur: 18°C
Dauwpunt: 14°C
Vochtigheid: 78%
Barometer: 1001 hPa
Satelliet beelden: Gedeeltelijk bewolkt
Zicht: meer dan 10 km
Bewolking: Licht bewolkt 914 m,
Gedeeltelijk bewolkt 1128 m
EDDK 240150Z 20011KT 9999 FEW030TCU SCT037 18/14 Q1001 TEMPO SHRA
TNCA - Oranjestad Aruba
Gewijzigd: 24-09-2020 03:00
Licht bewolkt  
Licht bewolkt  
   Wind: Oosten 27.8 km/h
Wind: Oosten 27.8 km/h
Temperatuur: 30°C
Gevoelstemperatuur: 37°C
Dauwpunt: 26°C
Vochtigheid: 79%
Barometer: 1010 hPa
Satelliet beelden: Licht bewolkt
Zicht: meer dan 10 km
Bewolking: Licht bewolkt 640 m
TNCA 240100Z 09015KT 9999 FEW021 30/26 Q1010 NOSIG
TNCC - Willemstad Curacao
Gewijzigd: 24-09-2020 03:00
Helder  
Helder  
   Wind: Oosten 22.2 km/h
Wind: Oosten 22.2 km/h
Temperatuur: 30°C
Gevoelstemperatuur: 36°C
Dauwpunt: 25°C
Vochtigheid: 75%
Barometer: 1011 hPa
Zicht: meer dan 10 km
Bewolking: Helder
TNCC 240100Z 10012KT CAVOK 30/25 Q1011 NOSIG
LEAL - La Nucia Spanje
Gewijzigd: 24-09-2020 03:30
Helder  
Helder  
   Wind: ZW 13 km/h
Wind: ZW 13 km/h
Temperatuur: 24°C
Dauwpunt: 13°C
Vochtigheid: 50%
Barometer: 1013 hPa
Zicht: meer dan 10 km
Bewolking: Helder
LEAL 240130Z 23007KT 190V260 CAVOK 24/13 Q1013 NOSIG

Script ontwikkeld door  Saratoga-weather.org Aangepast voor de template door  Weerstation Leuven

U vindt ons ook hier:

Het Weer Aktueel

WOW Nederland KNMI

Vereniging voor Weerkunde en Klimatologie

UK Met Office Weather Observation Website (WOW)

WeatherCloud

Weather Underground

Awekas

MeteoMap.Cloud

HAMweather, WeatherForYou, PWS Weather

Citizen Weather Observer Program (CWOP)

Apparatuur in gebruik:

Hardwareleverancier
Weerhuisje

Weerstation
Vantage Pro2+ UV

Weercomputer's
alix3d2 & wl330n

Weerprogramma's
Smartbedded

Satelliet NOAA's
WRX137 & KX137

Satelliet Eumetsat
Ayecka SR1 & Triax

Bliksemdetectie
Boltek StormTracker

Webleverancier
F-Service

Weerhuisje

Vantage Pro2+ UV

alix3d2 & wl330n

Smartbedded

WRX137 & KX137

Ayecka SR1 & Triax

Boltek StormTracker

F-Service